createdAt,value
2023-04-01T00:01:17.823Z,7.17
2023-04-01T00:03:45.184Z,7.70
2023-04-01T00:06:17.768Z,7.03
2023-04-01T00:08:45.647Z,5.33
2023-04-01T00:11:12.816Z,8.37
2023-04-01T00:13:39.480Z,7.50
2023-04-01T00:16:17.660Z,6.50
2023-04-01T00:18:48.669Z,3.97
2023-04-01T00:21:16.917Z,3.00
2023-04-01T00:23:43.702Z,4.13
2023-04-01T00:26:10.756Z,3.07
2023-04-01T00:28:37.623Z,3.53
2023-04-01T00:31:11.621Z,4.27
2023-04-01T00:33:39.245Z,4.27
2023-04-01T00:36:14.898Z,5.30
2023-04-01T00:38:43.594Z,6.03
2023-04-01T00:41:15.835Z,7.70
2023-04-01T00:43:50.166Z,5.50
2023-04-01T00:46:16.973Z,4.70
2023-04-01T00:48:48.887Z,7.23
2023-04-01T00:51:19.920Z,8.07
2023-04-01T00:53:51.032Z,6.83
2023-04-01T00:56:40.839Z,10.27
2023-04-01T00:59:28.552Z,10.83
2023-04-01T01:01:55.541Z,8.27
2023-04-01T01:04:33.974Z,6.27
2023-04-01T01:07:24.741Z,9.37
2023-04-01T01:10:05.606Z,4.67
2023-04-01T01:12:42.074Z,3.93
2023-04-01T01:15:20.587Z,3.57
2023-04-01T01:17:56.312Z,4.77
2023-04-01T01:20:49.414Z,3.57
2023-04-01T01:23:41.102Z,4.17
2023-04-01T01:26:48.081Z,6.77
2023-04-01T01:29:52.284Z,5.90
2023-04-01T01:32:34.230Z,4.10
2023-04-01T01:35:38.528Z,3.03
2023-04-01T01:38:15.143Z,6.93
2023-04-01T01:40:45.937Z,3.87
2023-04-01T01:43:17.389Z,4.47
2023-04-01T01:45:50.433Z,6.80
2023-04-01T01:48:18.484Z,4.60
2023-04-01T01:50:48.152Z,5.37
2023-04-01T01:53:14.822Z,4.00
2023-04-01T01:55:44.362Z,4.43
2023-04-01T01:58:18.870Z,7.27
2023-04-01T02:00:51.413Z,4.13
2023-04-01T02:03:19.088Z,5.07
2023-04-01T02:05:46.103Z,6.30
2023-04-01T02:08:26.067Z,4.27
2023-04-01T02:11:06.944Z,4.27
2023-04-01T02:14:04.259Z,2.97
2023-04-01T02:16:40.273Z,2.00
2023-04-01T02:19:11.445Z,1.30
2023-04-01T02:21:40.674Z,2.20
2023-04-01T02:24:13.310Z,3.10
2023-04-01T02:26:41.035Z,2.87
2023-04-01T02:29:11.739Z,4.87
2023-04-01T02:31:38.777Z,4.40
2023-04-01T02:34:05.897Z,2.90
2023-04-01T02:36:33.551Z,5.07
2023-04-01T02:39:03.525Z,2.47
2023-04-01T02:41:30.212Z,3.10
2023-04-01T02:43:59.511Z,4.10
2023-04-01T02:46:26.692Z,2.87
2023-04-01T02:48:53.281Z,4.67
2023-04-01T02:51:20.174Z,3.90
2023-04-01T02:53:46.822Z,4.87
2023-04-01T02:56:13.473Z,4.10
2023-04-01T02:58:40.370Z,3.10
2023-04-01T03:01:09.831Z,4.03
2023-04-01T03:03:36.498Z,3.43
2023-04-01T03:06:08.235Z,2.80
2023-04-01T03:08:35.165Z,2.90
2023-04-01T03:11:01.832Z,3.70
2023-04-01T03:13:28.484Z,4.17
2023-04-01T03:15:55.691Z,3.73
2023-04-01T03:18:22.567Z,4.87
2023-04-01T03:20:49.189Z,4.73
2023-04-01T03:23:18.446Z,3.93
2023-04-01T03:25:45.140Z,2.23
2023-04-01T03:28:14.408Z,3.73
2023-04-01T03:30:43.376Z,1.40
2023-04-01T03:33:10.149Z,2.07
2023-04-01T03:35:37.174Z,1.87
2023-04-01T03:38:03.878Z,2.53
2023-04-01T03:40:30.533Z,1.70
2023-04-01T03:42:57.353Z,1.70
2023-04-01T03:45:24.129Z,1.50
2023-04-01T03:47:50.808Z,2.43
2023-04-01T03:50:17.540Z,1.93
2023-04-01T03:52:46.441Z,2.17
2023-04-01T03:55:13.391Z,1.83
2023-04-01T03:57:40.004Z,3.03
2023-04-01T04:00:07.338Z,1.27
2023-04-01T04:02:34.031Z,2.10
2023-04-01T04:05:00.730Z,3.00
2023-04-01T04:07:27.364Z,2.30
2023-04-01T04:09:53.986Z,3.20
2023-04-01T04:12:20.600Z,1.10
2023-04-01T04:14:47.176Z,1.70
2023-04-01T04:17:17.454Z,1.77
2023-04-01T04:19:44.587Z,2.60
2023-04-01T04:22:11.286Z,1.73
2023-04-01T04:24:38.924Z,2.40
2023-04-01T04:27:05.992Z,1.40
2023-04-01T04:29:32.574Z,3.43
2023-04-01T04:31:59.289Z,2.40
2023-04-01T04:34:26.084Z,4.13
2023-04-01T04:36:52.759Z,1.53
2023-04-01T04:39:19.410Z,1.80
2023-04-01T04:41:46.140Z,2.57
2023-04-01T04:44:12.922Z,1.63
2023-04-01T04:46:40.557Z,3.47
2023-04-01T04:49:07.913Z,2.40
2023-04-01T04:51:36.899Z,2.83
2023-04-01T04:54:04.441Z,3.67
2023-04-01T04:56:31.912Z,1.33
2023-04-01T04:58:59.341Z,1.70
2023-04-01T05:01:26.622Z,2.90
2023-04-01T05:03:53.313Z,2.10
2023-04-01T05:06:23.373Z,1.63
2023-04-01T05:08:50.202Z,1.73
2023-04-01T05:11:20.722Z,2.13
2023-04-01T05:13:47.647Z,2.60
2023-04-01T05:16:17.518Z,2.73
2023-04-01T05:18:44.931Z,3.03
2023-04-01T05:21:13.216Z,1.70
2023-04-01T05:23:40.445Z,2.17
2023-04-01T05:26:09.671Z,2.80
2023-04-01T05:28:36.507Z,2.63
2023-04-01T05:31:04.197Z,3.00
2023-04-01T05:33:31.428Z,2.90
2023-04-01T05:36:07.133Z,4.67
2023-04-01T05:38:33.832Z,3.27
2023-04-01T05:41:04.267Z,3.00
2023-04-01T05:43:31.321Z,2.80
2023-04-01T05:45:59.480Z,4.27
2023-04-01T05:48:26.124Z,3.30
2023-04-01T05:50:52.726Z,3.03
2023-04-01T05:53:19.509Z,3.57
2023-04-01T05:55:46.205Z,3.87
2023-04-01T05:58:12.869Z,4.50
2023-04-01T06:00:39.757Z,4.00
2023-04-01T06:03:06.465Z,4.03
2023-04-01T06:05:41.232Z,4.33
2023-04-01T06:08:20.350Z,4.10
2023-04-01T06:10:56.180Z,4.33
2023-04-01T06:13:47.146Z,4.30
2023-04-01T06:16:19.412Z,5.93
2023-04-01T06:19:15.252Z,5.83
2023-04-01T06:22:04.233Z,4.87
2023-04-01T06:24:55.290Z,4.87
2023-04-01T06:27:30.953Z,4.93
2023-04-01T06:30:39.595Z,5.03
2023-04-01T06:33:16.134Z,5.30
2023-04-01T06:35:57.982Z,6.30
2023-04-01T06:38:51.605Z,5.63
2023-04-01T06:41:39.440Z,8.23
2023-04-01T06:44:28.224Z,6.33
2023-04-01T06:47:24.240Z,12.27
2023-04-01T06:49:56.888Z,7.30
2023-04-01T06:52:31.538Z,5.23
2023-04-01T06:55:31.166Z,9.40
2023-04-01T06:58:01.093Z,4.07
2023-04-01T07:00:31.778Z,4.27
2023-04-01T07:03:10.630Z,4.00
2023-04-01T07:05:37.305Z,9.63
2023-04-01T07:08:07.096Z,4.83
2023-04-01T07:10:47.582Z,6.60
2023-04-01T07:13:22.607Z,5.00
2023-04-01T07:16:17.077Z,6.83
2023-04-01T07:18:57.728Z,2.60
2023-04-01T07:21:37.321Z,6.13
2023-04-01T07:24:13.206Z,19.53
2023-04-01T07:26:39.878Z,9.10
2023-04-01T07:29:12.110Z,3.10
2023-04-01T07:31:46.417Z,3.40
2023-04-01T07:34:28.574Z,3.73
2023-04-01T07:37:08.541Z,5.23
2023-04-01T07:39:41.204Z,2.90
2023-04-01T07:42:30.901Z,3.07
2023-04-01T07:45:22.234Z,2.77
2023-04-01T07:47:59.087Z,3.57
2023-04-01T07:50:31.210Z,3.10
2023-04-01T07:53:18.312Z,3.00
2023-04-01T07:56:13.931Z,3.50
2023-04-01T07:58:56.132Z,3.30
2023-04-01T08:01:41.534Z,3.57
2023-04-01T08:04:24.751Z,4.20
2023-04-01T08:06:59.337Z,4.40
2023-04-01T08:09:48.592Z,4.03
2023-04-01T08:12:36.997Z,4.47
2023-04-01T08:15:28.380Z,4.60
2023-04-01T08:18:16.658Z,4.07
2023-04-01T08:20:48.653Z,4.33
2023-04-01T08:23:30.400Z,4.00
2023-04-01T08:25:57.247Z,3.90
2023-04-01T08:28:47.017Z,4.40
2023-04-01T08:31:26.250Z,4.57
2023-04-01T08:33:56.174Z,3.53
2023-04-01T08:36:28.397Z,4.20
2023-04-01T08:39:10.486Z,3.80
2023-04-01T08:41:56.032Z,3.90
2023-04-01T08:44:43.246Z,3.87
2023-04-01T08:47:31.585Z,3.60
2023-04-01T08:50:26.376Z,3.67
2023-04-01T08:53:07.495Z,4.30
2023-04-01T08:55:53.743Z,3.87
2023-04-01T08:58:39.245Z,5.07
2023-04-01T09:01:18.732Z,6.20
2023-04-01T09:04:14.746Z,3.73
2023-04-01T09:06:45.817Z,6.50
2023-04-01T09:09:39.726Z,4.60
2023-04-01T09:12:25.406Z,8.43
2023-04-01T09:15:07.446Z,4.90
2023-04-01T09:18:02.716Z,5.63
2023-04-01T09:20:39.552Z,5.53
2023-04-01T09:23:33.247Z,6.23
2023-04-01T09:26:23.300Z,6.53
2023-04-01T09:29:17.748Z,6.33
2023-04-01T09:31:53.518Z,5.93
2023-04-01T09:34:38.284Z,6.47
2023-04-01T09:37:35.421Z,7.07
2023-04-01T09:40:11.431Z,6.00
2023-04-01T09:43:06.656Z,7.37
2023-04-01T09:45:33.474Z,8.63
2023-04-01T09:48:25.253Z,6.80
2023-04-01T09:51:12.479Z,7.23
2023-04-01T09:53:49.687Z,7.63
2023-04-01T09:56:54.061Z,10.03
2023-04-01T09:59:48.439Z,8.93
2023-04-01T10:02:59.003Z,8.57
2023-04-01T10:05:31.613Z,10.90
2023-04-01T10:08:20.058Z,8.67
2023-04-01T10:11:26.308Z,9.33
2023-04-01T10:14:25.234Z,9.03
2023-04-01T10:17:19.765Z,9.97
2023-04-01T10:20:14.545Z,8.50
2023-04-01T10:22:41.289Z,9.17
2023-04-01T10:25:29.134Z,10.63
2023-04-01T10:28:17.230Z,9.13
2023-04-01T10:31:13.554Z,10.97
2023-04-01T10:34:21.832Z,10.60
2023-04-01T10:36:59.265Z,12.30
2023-04-01T10:39:53.595Z,8.70
2023-04-01T10:42:57.935Z,11.07
2023-04-01T10:45:49.799Z,9.83
2023-04-01T10:48:22.167Z,9.83
2023-04-01T10:51:13.745Z,13.17
2023-04-01T10:53:43.360Z,9.03
2023-04-01T10:56:34.992Z,9.97
2023-04-01T10:59:15.425Z,10.63
2023-04-01T11:02:27.234Z,10.73
2023-04-01T11:05:43.652Z,10.00
2023-04-01T11:08:46.818Z,12.40
2023-04-01T11:11:44.602Z,11.43
2023-04-01T11:14:14.754Z,12.70
2023-04-01T11:16:54.552Z,11.97
2023-04-01T11:19:56.527Z,13.23
2023-04-01T11:22:51.755Z,14.13
2023-04-01T11:25:26.327Z,12.40
2023-04-01T11:27:56.060Z,12.10
2023-04-01T11:30:42.311Z,11.43
2023-04-01T11:33:29.690Z,15.70
2023-04-01T11:37:04.216Z,13.47
2023-04-01T11:39:48.871Z,11.47
2023-04-01T11:42:33.797Z,14.73
2023-04-01T11:45:39.184Z,13.07
2023-04-01T11:48:26.470Z,13.03
2023-04-01T11:50:53.415Z,14.03
2023-04-01T11:53:35.237Z,11.90
2023-04-01T11:56:36.099Z,11.80
2023-04-01T11:59:25.570Z,10.57
2023-04-01T12:02:08.453Z,13.10
2023-04-01T12:04:49.957Z,11.83
2023-04-01T12:07:46.766Z,9.43
2023-04-01T12:10:23.019Z,9.83
2023-04-01T12:13:02.068Z,9.27
2023-04-01T12:15:53.618Z,9.97
2023-04-01T12:18:51.315Z,8.23
2023-04-01T12:21:37.377Z,10.00
2023-04-01T12:24:22.444Z,7.83
2023-04-01T12:27:17.840Z,7.80
2023-04-01T12:30:06.366Z,7.53
2023-04-01T12:32:46.905Z,7.60
2023-04-01T12:35:30.958Z,7.63
2023-04-01T12:38:15.063Z,7.87
2023-04-01T12:40:53.123Z,7.83
2023-04-01T12:43:36.462Z,9.83
2023-04-01T12:46:11.904Z,8.37
2023-04-01T12:48:54.920Z,9.10
2023-04-01T12:51:46.820Z,8.53
2023-04-01T12:55:01.545Z,8.57
2023-04-01T12:57:42.931Z,8.57
2023-04-01T13:00:45.228Z,8.80
2023-04-01T13:03:30.146Z,8.10
2023-04-01T13:06:20.940Z,8.17
2023-04-01T13:09:28.245Z,7.73
2023-04-01T13:12:11.181Z,7.83
2023-04-01T13:15:16.663Z,7.80
2023-04-01T13:17:58.745Z,8.37
2023-04-01T13:20:34.705Z,7.97
2023-04-01T13:23:35.584Z,8.93
2023-04-01T13:26:14.208Z,10.37
2023-04-01T13:29:12.975Z,8.50
2023-04-01T13:32:07.555Z,8.23
2023-04-01T13:34:59.777Z,9.47
2023-04-01T13:37:53.666Z,7.23
2023-04-01T13:40:59.589Z,8.50
2023-04-01T13:43:40.890Z,7.30
2023-04-01T13:46:51.389Z,8.00
2023-04-01T13:49:59.547Z,8.73
2023-04-01T13:52:31.981Z,8.03
2023-04-01T13:55:17.241Z,10.60
2023-04-01T13:57:49.791Z,9.13
2023-04-01T14:00:31.730Z,7.73
2023-04-01T14:03:52.047Z,8.20
2023-04-01T14:06:39.482Z,7.93
2023-04-01T14:09:23.063Z,8.13
2023-04-01T14:12:23.009Z,10.30
2023-04-01T14:15:23.044Z,7.77
2023-04-01T14:18:04.135Z,9.10
2023-04-01T14:20:41.928Z,8.03
2023-04-01T14:23:20.987Z,8.37
2023-04-01T14:26:16.285Z,10.37
2023-04-01T14:29:34.088Z,11.30
2023-04-01T14:32:07.812Z,10.30
2023-04-01T14:34:34.400Z,8.30
2023-04-01T14:37:35.040Z,6.60
2023-04-01T14:40:30.114Z,6.90
2023-04-01T14:42:59.924Z,7.47
2023-04-01T14:45:36.396Z,8.23
2023-04-01T14:48:41.064Z,6.37
2023-04-01T14:51:17.846Z,6.10
2023-04-01T14:54:06.034Z,6.20
2023-04-01T14:56:49.493Z,6.33
2023-04-01T14:59:28.394Z,6.30
2023-04-01T15:02:09.992Z,6.53
2023-04-01T15:05:02.487Z,6.33
2023-04-01T15:07:47.762Z,8.30
2023-04-01T15:10:21.928Z,6.77
2023-04-01T15:13:19.316Z,8.13
2023-04-01T15:16:10.670Z,7.10
2023-04-01T15:19:02.000Z,7.00
2023-04-01T15:21:35.174Z,5.67
2023-04-01T15:24:13.875Z,6.07
2023-04-01T15:27:13.785Z,5.87
2023-04-01T15:29:45.963Z,6.87
2023-04-01T15:32:24.912Z,6.17
2023-04-01T15:35:04.276Z,5.30
2023-04-01T15:37:59.859Z,5.50
2023-04-01T15:40:52.524Z,6.40
2023-04-01T15:43:54.720Z,4.63
2023-04-01T15:46:36.632Z,4.17
2023-04-01T15:49:23.768Z,4.13
2023-04-01T15:51:57.648Z,5.80
2023-04-01T15:54:58.099Z,5.03
2023-04-01T15:57:27.746Z,4.73
2023-04-01T16:00:19.414Z,5.83
2023-04-01T16:03:16.187Z,6.10
2023-04-01T16:06:12.110Z,5.57
2023-04-01T16:09:00.175Z,5.37
2023-04-01T16:11:45.148Z,5.10
2023-04-01T16:14:40.839Z,6.97
2023-04-01T16:17:35.913Z,4.57
2023-04-01T16:20:14.702Z,5.07
2023-04-01T16:22:46.085Z,4.40
2023-04-01T16:25:36.951Z,4.13
2023-04-01T16:28:29.169Z,5.47
2023-04-01T16:31:05.840Z,5.20
2023-04-01T16:33:52.170Z,6.10
2023-04-01T16:36:25.821Z,5.53
2023-04-01T16:39:19.501Z,7.37
2023-04-01T16:41:59.096Z,9.07
2023-04-01T16:44:28.519Z,9.70
2023-04-01T16:46:59.824Z,11.33
2023-04-01T16:49:56.239Z,7.10
2023-04-01T16:52:55.242Z,8.40
2023-04-01T16:55:25.487Z,7.30
2023-04-01T16:57:57.231Z,7.03
2023-04-01T17:00:42.811Z,6.90
2023-04-01T17:03:18.963Z,7.70
2023-04-01T17:06:05.900Z,7.83
2023-04-01T17:09:03.770Z,7.70
2023-04-01T17:11:38.591Z,7.53
2023-04-01T17:14:08.240Z,8.77
2023-04-01T17:16:48.761Z,9.03
2023-04-01T17:19:42.272Z,9.00
2023-04-01T17:22:30.824Z,9.00
2023-04-01T17:25:22.967Z,10.77
2023-04-01T17:28:08.069Z,8.80
2023-04-01T17:30:50.882Z,9.07
2023-04-01T17:33:44.641Z,9.37
2023-04-01T17:36:27.368Z,8.30
2023-04-01T17:39:11.564Z,9.73
2023-04-01T17:41:54.156Z,8.60
2023-04-01T17:44:45.941Z,11.00
2023-04-01T17:47:34.858Z,8.73
2023-04-01T17:50:20.160Z,9.00
2023-04-01T17:53:02.636Z,8.00
2023-04-01T17:55:48.160Z,7.83
2023-04-01T17:58:29.570Z,8.80
2023-04-01T18:01:15.262Z,8.73
2023-04-01T18:04:09.634Z,8.47
2023-04-01T18:06:55.593Z,10.37
2023-04-01T18:09:40.648Z,8.60
2023-04-01T18:12:17.153Z,8.80
2023-04-01T18:15:06.618Z,9.43
2023-04-01T18:17:53.910Z,8.33
2023-04-01T18:20:36.106Z,8.97
2023-04-01T18:23:18.307Z,9.37
2023-04-01T18:25:49.688Z,9.13
2023-04-01T18:28:20.249Z,9.90
2023-04-01T18:30:58.890Z,9.23
2023-04-01T18:33:42.255Z,11.20
2023-04-01T18:36:36.447Z,10.43
2023-04-01T18:39:20.025Z,12.80
2023-04-01T18:42:22.093Z,15.27
2023-04-01T18:44:53.499Z,18.07
2023-04-01T18:47:36.497Z,15.23
2023-04-01T18:50:38.779Z,17.83
2023-04-01T18:53:35.270Z,13.20
2023-04-01T18:56:07.505Z,9.83
2023-04-01T18:58:48.875Z,9.70
2023-04-01T19:01:23.988Z,10.13
2023-04-01T19:04:01.402Z,10.63
2023-04-01T19:06:48.710Z,10.20
2023-04-01T19:09:27.087Z,9.83
2023-04-01T19:12:34.768Z,9.50
2023-04-01T19:15:23.208Z,9.47
2023-04-01T19:18:03.613Z,9.57
2023-04-01T19:20:55.200Z,11.07
2023-04-01T19:23:55.130Z,9.83
2023-04-01T19:26:38.625Z,9.63
2023-04-01T19:29:14.579Z,7.50
2023-04-01T19:31:57.775Z,5.67
2023-04-01T19:34:35.944Z,5.40
2023-04-01T19:37:06.671Z,4.03
2023-04-01T19:40:15.865Z,4.20
2023-04-01T19:42:48.511Z,4.10
2023-04-01T19:45:15.067Z,3.00
2023-04-01T19:48:01.646Z,2.60
2023-04-01T19:50:52.188Z,2.90
2023-04-01T19:53:36.034Z,2.97
2023-04-01T19:56:24.974Z,3.13
2023-04-01T19:59:11.162Z,2.70
2023-04-01T20:01:46.268Z,2.53
2023-04-01T20:04:45.333Z,2.93
2023-04-01T20:07:23.693Z,3.03
2023-04-01T20:10:36.117Z,2.80
2023-04-01T20:13:16.909Z,2.67
2023-04-01T20:15:47.871Z,2.53
2023-04-01T20:18:21.347Z,5.70
2023-04-01T20:21:18.444Z,2.80
2023-04-01T20:24:03.001Z,3.37
2023-04-01T20:26:36.484Z,3.50
2023-04-01T20:29:27.957Z,3.73
2023-04-01T20:32:13.076Z,3.60
2023-04-01T20:35:18.266Z,3.47
2023-04-01T20:38:15.164Z,3.53
2023-04-01T20:40:48.015Z,3.80
2023-04-01T20:43:36.812Z,3.60
2023-04-01T20:46:26.486Z,3.83
2023-04-01T20:49:02.307Z,3.10
2023-04-01T20:51:36.494Z,3.17
2023-04-01T20:54:33.015Z,3.97
2023-04-01T20:57:28.802Z,5.03
2023-04-01T21:00:02.234Z,3.00
2023-04-01T21:02:31.811Z,2.87
2023-04-01T21:05:39.526Z,2.93
2023-04-01T21:08:23.550Z,2.60
2023-04-01T21:11:01.636Z,2.73
2023-04-01T21:13:52.983Z,3.10
2023-04-01T21:16:44.932Z,2.50
2023-04-01T21:19:30.041Z,2.70
2023-04-01T21:22:09.331Z,3.07
2023-04-01T21:25:02.894Z,2.40
2023-04-01T21:28:14.480Z,2.40
2023-04-01T21:30:53.080Z,2.33
2023-04-01T21:33:47.885Z,3.00
2023-04-01T21:36:45.509Z,2.40
2023-04-01T21:39:52.499Z,2.40
2023-04-01T21:42:32.397Z,2.30
2023-04-01T21:45:01.796Z,2.50
2023-04-01T21:47:28.412Z,2.33
2023-04-01T21:50:12.845Z,3.57
2023-04-01T21:53:13.576Z,3.63
2023-04-01T21:56:21.230Z,2.60
2023-04-01T21:59:14.129Z,3.40
2023-04-01T22:01:46.977Z,2.57
2023-04-01T22:05:01.889Z,2.93
2023-04-01T22:08:05.820Z,3.30
2023-04-01T22:10:52.381Z,3.33
2023-04-01T22:13:33.856Z,4.10
2023-04-01T22:16:18.880Z,3.30
2023-04-01T22:19:04.440Z,3.10
2023-04-01T22:21:53.280Z,3.30
2023-04-01T22:24:49.472Z,3.10
2023-04-01T22:27:28.354Z,3.67
2023-04-01T22:30:08.700Z,3.40
2023-04-01T22:32:38.429Z,3.10
2023-04-01T22:35:05.157Z,3.30
2023-04-01T22:37:31.853Z,3.50
2023-04-01T22:40:40.568Z,3.60
2023-04-01T22:43:14.520Z,3.97
2023-04-01T22:46:00.406Z,4.23
2023-04-01T22:48:53.592Z,4.20
2023-04-01T22:51:34.962Z,3.57
2023-04-01T22:54:17.604Z,4.00
2023-04-01T22:57:01.258Z,4.60
2023-04-01T22:59:46.303Z,4.90
2023-04-01T23:02:20.867Z,3.50
2023-04-01T23:04:56.886Z,3.40
2023-04-01T23:07:47.970Z,3.93
2023-04-01T23:10:42.176Z,2.90
2023-04-01T23:13:20.310Z,2.90
2023-04-01T23:15:50.467Z,3.33
2023-04-01T23:21:13.746Z,3.40
2023-04-01T23:24:14.903Z,4.33
2023-04-01T23:26:56.108Z,3.37
2023-04-01T23:29:26.131Z,4.23
2023-04-01T23:32:04.944Z,3.87
2023-04-01T23:34:33.671Z,3.90
2023-04-01T23:37:05.937Z,4.00
2023-04-01T23:39:45.128Z,3.70
2023-04-01T23:42:16.849Z,3.40
2023-04-01T23:44:45.024Z,3.27
2023-04-01T23:47:19.382Z,3.47
2023-04-01T23:49:54.180Z,3.60
2023-04-01T23:52:41.532Z,3.63
2023-04-01T23:55:32.388Z,3.97
2023-04-01T23:58:27.796Z,3.17
